Time;durP1;ratioP1;P1;durP2;ratioP2;P2;SDS_P1;SDS_P2;PMS_P1;PMS_P2;Temp;Humidity;BMP_temperature;BMP_pressure;BME280_temperature;BME280_humidity;BME280_pressure;Samples;Min_cycle;Max_cycle;Signal;HPM_P1;HPM_P2
2024/04/09 00:01:14;;;;;;;;;;;;;;;16.80;100.00;94992.66;5164857;27;20279;-73
2024/04/09 00:03:43;;;;;;;;;;;;;;;16.77;100.00;94996.00;5164781;27;20370;-73
2024/04/09 00:06:19;;;;;;;;;;;;;;;16.78;100.00;94994.88;5163715;27;20289;-72
2024/04/09 00:08:47;;;;;;;;;;;;;;;16.78;100.00;94989.47;5165203;27;20275;-73
2024/04/09 00:11:21;;;;;;;;;;;;;;;16.79;100.00;94985.63;5164834;27;19933;-73
2024/04/09 00:13:51;;;;;;;;;;;;;;;16.77;100.00;94977.00;5165035;27;19939;-74
2024/04/09 00:16:22;;;;;;;;;;;;;;;16.74;100.00;94972.22;5135806;27;20269;-73
2024/04/09 00:18:55;;;;;;;;;;;;;;;16.74;100.00;94972.22;5164157;27;19933;-73
2024/04/09 00:21:23;;;;;;;;;;;;;;;16.71;100.00;94968.28;5164858;27;19939;-73
2024/04/09 00:23:51;;;;;;;;;;;;;;;16.71;100.00;94965.56;5163301;27;20374;-74
2024/04/09 00:26:19;;;;;;;;;;;;;;;16.66;100.00;94962.25;5162696;27;19939;-73
2024/04/09 00:28:47;;;;;;;;;;;;;;;16.63;100.00;94960.22;5164396;27;20459;-73
2024/04/09 00:31:16;;;;;;;;;;;;;;;16.62;100.00;94950.47;5164490;27;19933;-75
2024/04/09 00:33:45;;;;;;;;;;;;;;;16.60;100.00;94955.41;5164146;27;19932;-74
2024/04/09 00:36:13;;;;;;;;;;;;;;;16.57;100.00;94943.31;5162261;27;19935;-74
2024/04/09 00:38:41;;;;;;;;;;;;;;;16.58;100.00;94946.81;5163052;27;19933;-73
2024/04/09 00:41:10;;;;;;;;;;;;;;;16.56;100.00;94946.34;5164173;27;19939;-73
2024/04/09 00:43:38;;;;;;;;;;;;;;;16.54;100.00;94945.88;5164126;27;20372;-74
2024/04/09 00:46:05;;;;;;;;;;;;;;;16.51;100.00;94938.41;5163760;27;19939;-73
2024/04/09 00:48:33;;;;;;;;;;;;;;;16.49;100.00;94944.16;5135757;27;19939;-73
2024/04/09 00:51:01;;;;;;;;;;;;;;;16.47;100.00;94951.84;5164153;27;19933;-73
2024/04/09 00:53:28;;;;;;;;;;;;;;;16.46;100.00;94944.03;5163547;27;20359;-73
2024/04/09 00:55:56;;;;;;;;;;;;;;;16.45;100.00;94934.28;5161875;27;19933;-72
2024/04/09 00:58:24;;;;;;;;;;;;;;;16.43;100.00;94933.84;5163978;27;19939;-73
2024/04/09 01:00:52;;;;;;;;;;;;;;;16.40;100.00;94929.06;5162308;27;19933;-72
2024/04/09 01:03:20;;;;;;;;;;;;;;;16.38;100.00;94925.88;5162387;27;19939;-73
2024/04/09 01:05:48;;;;;;;;;;;;;;;16.30;100.00;94933.75;5163610;27;19939;-75
2024/04/09 01:08:15;;;;;;;;;;;;;;;16.19;100.00;94937.22;5163629;27;19937;-73
2024/04/09 01:10:42;;;;;;;;;;;;;;;16.18;100.00;94933.69;5163317;27;20465;-72
2024/04/09 01:13:10;;;;;;;;;;;;;;;16.20;100.00;94941.50;5161514;27;19936;-74
2024/04/09 01:15:37;;;;;;;;;;;;;;;16.20;100.00;94931.47;5161326;27;20333;-72
2024/04/09 01:18:04;;;;;;;;;;;;;;;16.20;100.00;94936.09;5161823;27;19933;-72
2024/04/09 01:20:35;;;;;;;;;;;;;;;16.16;100.00;94935.13;5162345;27;19933;-74
2024/04/09 01:23:02;;;;;;;;;;;;;;;16.15;100.00;94942.47;5162939;27;20969;-73
2024/04/09 01:25:29;;;;;;;;;;;;;;;16.09;100.00;94951.94;5161288;27;20546;-74
2024/04/09 01:27:57;;;;;;;;;;;;;;;16.08;100.00;94960.38;5164089;27;20366;-73
2024/04/09 01:30:25;;;;;;;;;;;;;;;16.08;100.00;94953.06;5166077;27;19933;-74
2024/04/09 01:32:52;;;;;;;;;;;;;;;16.01;100.00;94950.06;5165362;27;19939;-73
2024/04/09 01:35:19;;;;;;;;;;;;;;;16.01;100.00;94954.69;5166497;27;19932;-73
2024/04/09 01:37:47;;;;;;;;;;;;;;;15.96;100.00;94958.41;5136229;27;19937;-72
2024/04/09 01:40:14;;;;;;;;;;;;;;;15.94;100.00;94961.44;5166975;27;19939;-73
2024/04/09 01:42:41;;;;;;;;;;;;;;;15.91;100.00;94966.72;5166789;27;20096;-72
2024/04/09 01:45:09;;;;;;;;;;;;;;;15.89;100.00;94963.53;5166384;27;20034;-73
2024/04/09 01:47:36;;;;;;;;;;;;;;;15.84;100.00;94956.41;5164865;27;19933;-73
2024/04/09 01:50:04;;;;;;;;;;;;;;;15.80;100.00;94957.34;5166902;27;19933;-74
2024/04/09 01:52:31;;;;;;;;;;;;;;;15.83;100.00;94959.44;5165162;27;19932;-73
2024/04/09 01:54:59;;;;;;;;;;;;;;;15.83;100.00;94960.22;5166518;27;19932;-72
2024/04/09 01:57:27;;;;;;;;;;;;;;;15.83;100.00;94970.25;5164795;27;20011;-73
2024/04/09 01:59:55;;;;;;;;;;;;;;;15.80;100.00;94976.31;5166305;27;19932;-72
2024/04/09 02:02:23;;;;;;;;;;;;;;;15.72;100.00;94969.81;5166442;27;20366;-72
2024/04/09 02:04:50;;;;;;;;;;;;;;;15.74;100.00;94966.78;5164878;27;19939;-73
2024/04/09 02:07:17;;;;;;;;;;;;;;;15.74;100.00;94962.16;5164730;27;19939;-74
2024/04/09 02:09:44;;;;;;;;;;;;;;;15.72;100.00;94961.69;5137695;27;19932;-73
2024/04/09 02:12:11;;;;;;;;;;;;;;;15.70;100.00;94965.88;5165224;27;19932;-73
2024/04/09 02:14:39;;;;;;;;;;;;;;;15.69;100.00;94967.78;5165686;27;19948;-73
2024/04/09 02:17:06;;;;;;;;;;;;;;;15.67;100.00;94961.09;5136101;27;19932;-74
2024/04/09 02:19:33;;;;;;;;;;;;;;;15.64;100.00;94961.72;5165952;27;19939;-71
2024/04/09 02:22:00;;;;;;;;;;;;;;;15.63;100.00;94960.16;5164945;27;20341;-74
2024/04/09 02:24:28;;;;;;;;;;;;;;;15.61;100.00;94956.97;5165965;27;19938;-73
2024/04/09 02:26:55;;;;;;;;;;;;;;;15.58;100.00;94958.41;5165891;27;20328;-74
2024/04/09 02:29:23;;;;;;;;;;;;;;;15.55;100.00;94950.94;5165884;27;20984;-73
2024/04/09 02:31:51;;;;;;;;;;;;;;;15.53;100.00;94948.56;5165040;27;19932;-74
2024/04/09 02:34:24;;;;;;;;;;;;;;;15.54;100.00;94949.34;5164695;27;19932;-73
2024/04/09 02:36:51;;;;;;;;;;;;;;;15.49;100.00;94947.56;5163905;27;19933;-72
2024/04/09 02:39:19;;;;;;;;;;;;;;;15.47;100.00;94938.19;5163340;27;20229;-73
2024/04/09 02:41:46;;;;;;;;;;;;;;;15.47;100.00;94949.84;5164993;27;20368;-73
2024/04/09 02:44:13;;;;;;;;;;;;;;;15.45;100.00;94951.28;5165305;27;20078;-73
2024/04/09 02:46:41;;;;;;;;;;;;;;;15.42;100.00;94944.56;5162091;27;20022;-72
2024/04/09 02:49:08;;;;;;;;;;;;;;;15.38;100.00;94942.84;5165363;27;19932;-73
2024/04/09 02:51:35;;;;;;;;;;;;;;;15.35;100.00;94951.59;5165066;27;19932;-71
2024/04/09 02:54:03;;;;;;;;;;;;;;;15.33;100.00;94945.75;5165341;27;19939;-73
2024/04/09 02:56:30;;;;;;;;;;;;;;;15.34;100.00;94936.50;5679374;22;19937;-72
2024/04/09 02:58:57;;;;;;;;;;;;;;;15.32;100.00;94941.44;5118603;27;19934;-73
2024/04/09 03:01:25;;;;;;;;;;;;;;;15.28;100.00;94948.59;5117816;27;20605;-73
2024/04/09 03:03:52;;;;;;;;;;;;;;;15.26;100.00;94945.44;5120240;27;20369;-73
2024/04/09 03:06:20;;;;;;;;;;;;;;;15.23;100.00;94941.47;5118619;27;20330;-73
2024/04/09 03:08:47;;;;;;;;;;;;;;;15.22;100.00;94939.06;5119279;27;19939;-73
2024/04/09 03:11:16;;;;;;;;;;;;;;;15.17;100.00;94940.06;5116605;27;19933;-74
2024/04/09 03:13:46;;;;;;;;;;;;;;;15.15;100.00;94936.88;5118021;27;20368;-73
2024/04/09 03:16:15;;;;;;;;;;;;;;;15.12;100.00;94940.25;5117196;27;19934;-73
2024/04/09 03:18:43;;;;;;;;;;;;;;;15.12;100.00;94948.34;5119989;27;19933;-73
2024/04/09 03:21:11;;;;;;;;;;;;;;;15.09;100.00;94940.88;5114676;27;19933;-72
2024/04/09 03:23:39;;;;;;;;;;;;;;;15.08;100.00;94934.66;5116561;27;19940;-73
2024/04/09 03:26:06;;;;;;;;;;;;;;;15.07;100.00;94937.69;5118307;27;19933;-73
2024/04/09 03:28:34;;;;;;;;;;;;;;;15.04;100.00;94938.34;5120244;27;19950;-73
2024/04/09 03:31:02;;;;;;;;;;;;;;;15.03;100.00;94939.47;5116299;27;19940;-73
2024/04/09 03:33:30;;;;;;;;;;;;;;;15.02;100.00;94941.38;5115338;27;19940;-72
2024/04/09 03:35:58;;;;;;;;;;;;;;;14.99;100.00;94941.19;5118041;27;20302;-73
2024/04/09 03:38:27;;;;;;;;;;;;;;;14.96;100.00;94942.66;5120069;27;19939;-73
2024/04/09 03:40:54;;;;;;;;;;;;;;;14.89;100.00;94947.75;5114382;27;19933;-73
2024/04/09 03:43:21;;;;;;;;;;;;;;;14.87;100.00;94950.00;5115790;27;19933;-72
2024/04/09 03:46:08;;;;;;;;;;;;;;;14.86;100.00;94945.69;5116664;27;20107;-73
2024/04/09 03:48:40;;;;;;;;;;;;;;;14.82;100.00;94947.47;5120383;27;19940;-72
2024/04/09 03:51:10;;;;;;;;;;;;;;;14.78;100.00;94947.28;5116441;27;20262;-73
2024/04/09 03:53:37;;;;;;;;;;;;;;;14.78;100.00;94944.59;5115661;27;19943;-73
2024/04/09 03:56:06;;;;;;;;;;;;;;;14.79;100.00;94943.47;5117406;27;19933;-72
2024/04/09 03:58:35;;;;;;;;;;;;;;;14.78;100.00;94941.06;5119112;27;19934;-73
2024/04/09 04:01:03;;;;;;;;;;;;;;;14.75;100.00;94931.72;5118445;27;19934;-73
2024/04/09 04:03:36;;;;;;;;;;;;;;;14.71;100.00;94936.16;5117779;27;19940;-72
2024/04/09 04:06:04;;;;;;;;;;;;;;;14.69;100.00;94937.59;5117592;27;19933;-72
2024/04/09 04:08:32;;;;;;;;;;;;;;;14.67;100.00;94946.03;5116131;27;20361;-72
2024/04/09 04:11:01;;;;;;;;;;;;;;;14.63;100.00;94939.66;5116102;27;19933;-72
2024/04/09 04:13:30;;;;;;;;;;;;;;;14.59;100.00;94932.53;5119067;27;19933;-73
2024/04/09 04:16:10;;;;;;;;;;;;;;;14.52;100.00;94934.91;5116285;27;20257;-73
2024/04/09 04:18:39;;;;;;;;;;;;;;;14.53;100.00;94940.00;5116210;27;19933;-74
2024/04/09 04:21:07;;;;;;;;;;;;;;;14.53;100.00;94942.72;5118755;27;19933;-72
2024/04/09 04:23:39;;;;;;;;;;;;;;;14.44;100.00;94922.97;5116938;27;20364;-73
2024/04/09 04:26:07;;;;;;;;;;;;;;;14.45;100.00;94926.47;5116203;27;20373;-72
2024/04/09 04:28:35;;;;;;;;;;;;;;;14.47;100.00;94930.44;5118656;27;19940;-73
2024/04/09 04:31:07;;;;;;;;;;;;;;;14.36;100.00;94921.03;5116937;27;19940;-72
2024/04/09 04:33:38;;;;;;;;;;;;;;;14.36;100.00;94918.34;5117942;27;19940;-73
2024/04/09 04:36:06;;;;;;;;;;;;;;;14.40;100.00;94922.81;5116049;27;19950;-74
2024/04/09 04:38:34;;;;;;;;;;;;;;;14.42;100.00;94925.19;5117637;27;19934;-72
2024/04/09 04:41:02;;;;;;;;;;;;;;;14.42;100.00;94917.09;5091908;27;19933;-74
2024/04/09 04:43:33;;;;;;;;;;;;;;;14.37;100.00;94920.72;5115946;27;19934;-73
2024/04/09 04:46:00;;;;;;;;;;;;;;;14.37;100.00;94933.44;5113272;27;19945;-72
2024/04/09 04:48:28;;;;;;;;;;;;;;;14.35;100.00;94928.34;5118812;27;20404;-72
2024/04/09 04:50:56;;;;;;;;;;;;;;;14.34;100.00;94928.66;5120289;27;19934;-71
2024/04/09 04:53:23;;;;;;;;;;;;;;;14.37;100.00;94930.75;5114282;27;19934;-73
2024/04/09 04:55:51;;;;;;;;;;;;;;;14.34;100.00;94931.38;5115281;27;19992;-74
2024/04/09 04:58:19;;;;;;;;;;;;;;;14.29;100.00;94924.22;5116833;27;19933;-72
2024/04/09 05:00:46;;;;;;;;;;;;;;;14.29;100.00;94926.91;5118578;27;19933;-72
2024/04/09 05:03:14;;;;;;;;;;;;;;;14.32;100.00;94933.59;5117847;27;19934;-73
2024/04/09 05:05:41;;;;;;;;;;;;;;;14.32;100.00;94933.59;5118756;27;20489;-73
2024/04/09 05:08:09;;;;;;;;;;;;;;;14.32;100.00;94923.56;5118971;27;20369;-75
2024/04/09 05:10:36;;;;;;;;;;;;;;;14.34;100.00;94924.06;5124804;27;20723;-73
2024/04/09 05:13:04;;;;;;;;;;;;;;;14.36;100.00;94927.25;5119393;27;19934;-73
2024/04/09 05:15:32;;;;;;;;;;;;;;;14.33;100.00;94924.38;5122115;27;19934;-72
2024/04/09 05:17:59;;;;;;;;;;;;;;;14.29;100.00;94926.91;5120581;27;19934;-73
2024/04/09 05:20:28;;;;;;;;;;;;;;;14.33;100.00;94925.16;5119838;27;19939;-73
2024/04/09 05:22:58;;;;;;;;;;;;;;;14.36;100.00;94921.03;5118762;27;19934;-72
2024/04/09 05:25:32;;;;;;;;;;;;;;;14.42;100.00;94927.91;5120285;27;19938;-72
2024/04/09 05:28:00;;;;;;;;;;;;;;;14.49;100.00;94928.22;5120155;27;19940;-74
2024/04/09 05:30:27;;;;;;;;;;;;;;;14.54;100.00;94921.88;5119461;27;20379;-74
2024/04/09 05:32:55;;;;;;;;;;;;;;;14.61;100.00;94933.00;5120494;27;20509;-73
2024/04/09 05:35:22;;;;;;;;;;;;;;;14.62;100.00;94929.94;5117416;27;19946;-73
2024/04/09 05:37:50;;;;;;;;;;;;;;;14.65;100.00;94928.53;5119900;27;19937;-73
2024/04/09 05:40:17;;;;;;;;;;;;;;;14.67;100.00;94927.09;5119222;27;19939;-74
2024/04/09 05:42:48;;;;;;;;;;;;;;;14.69;100.00;94927.56;5118481;27;19933;-73
2024/04/09 05:45:18;;;;;;;;;;;;;;;14.74;100.00;94926.63;5116974;27;19933;-72
2024/04/09 05:47:46;;;;;;;;;;;;;;;14.74;100.00;94922.00;5119086;27;20389;-72
2024/04/09 05:50:13;;;;;;;;;;;;;;;14.78;100.00;94931.06;5120954;27;19940;-73
2024/04/09 05:52:41;;;;;;;;;;;;;;;14.77;100.00;94924.06;5118192;27;19934;-72
2024/04/09 05:55:09;;;;;;;;;;;;;;;14.79;100.00;94937.25;5119361;27;20454;-73
2024/04/09 05:57:36;;;;;;;;;;;;;;;14.76;100.00;94932.47;5117895;27;20415;-73
2024/04/09 06:00:11;;;;;;;;;;;;;;;14.79;100.00;94931.84;5116910;27;19940;-72
2024/04/09 06:02:45;;;;;;;;;;;;;;;14.83;100.00;94937.44;5119914;27;19939;-73
2024/04/09 06:05:15;;;;;;;;;;;;;;;14.86;100.00;94936.78;5118073;27;19940;-73
2024/04/09 06:07:44;;;;;;;;;;;;;;;14.92;100.00;94930.88;5117286;27;19939;-73
2024/04/09 06:10:18;;;;;;;;;;;;;;;14.92;100.00;94930.06;5120714;27;19934;-74
2024/04/09 06:12:46;;;;;;;;;;;;;;;14.91;100.00;94934.69;5122494;27;19940;-73
2024/04/09 06:15:14;;;;;;;;;;;;;;;14.93;100.00;94926.25;5117278;27;19938;-73
2024/04/09 06:17:44;;;;;;;;;;;;;;;14.99;100.00;94935.78;5116073;27;19939;-73
2024/04/09 06:20:12;;;;;;;;;;;;;;;15.04;100.00;94927.50;5120707;27;19933;-73
2024/04/09 06:22:39;;;;;;;;;;;;;;;15.12;100.00;94934.81;5117329;27;20490;-72
2024/04/09 06:25:06;;;;;;;;;;;;;;;15.20;100.00;94928.56;5115924;27;20276;-74
2024/04/09 06:27:34;;;;;;;;;;;;;;;15.19;100.00;94932.41;5119622;27;19939;-74
2024/04/09 06:30:01;;;;;;;;;;;;;;;15.22;100.00;94930.94;5119333;27;19933;-74
2024/04/09 06:32:30;;;;;;;;;;;;;;;15.30;100.00;94930.94;5120955;27;20384;-74
2024/04/09 06:34:57;;;;;;;;;;;;;;;15.37;100.00;94931.22;5117099;27;19933;-73
2024/04/09 06:37:24;;;;;;;;;;;;;;;15.41;100.00;94929.47;5118379;27;19934;-73
2024/04/09 06:39:52;;;;;;;;;;;;;;;15.45;100.00;94938.53;5117020;27;20015;-73
2024/04/09 06:42:19;;;;;;;;;;;;;;;15.51;100.00;94941.84;5122124;27;20380;-73
2024/04/09 06:44:47;;;;;;;;;;;;;;;15.55;100.00;94940.13;5116632;27;19933;-73
2024/04/09 06:47:14;;;;;;;;;;;;;;;15.61;100.00;94940.72;5117433;27;20321;-73
2024/04/09 06:49:43;;;;;;;;;;;;;;;15.68;100.00;94957.25;5120008;27;20365;-73
2024/04/09 06:52:11;;;;;;;;;;;;;;;15.73;100.00;94962.50;5117543;27;19989;-73
2024/04/09 06:54:38;;;;;;;;;;;;;;;15.80;100.00;94960.06;5117200;27;19946;-73
2024/04/09 06:57:05;;;;;;;;;;;;;;;15.82;100.00;94968.66;5118524;27;20304;-72
2024/04/09 06:59:33;;;;;;;;;;;;;;;15.87;100.00;94974.69;5117742;27;20406;-73
2024/04/09 07:02:00;;;;;;;;;;;;;;;15.95;100.00;94995.53;5118373;27;19935;-72
2024/04/09 07:04:27;;;;;;;;;;;;;;;16.03;100.00;95006.66;5115421;27;19934;-73
2024/04/09 07:06:55;;;;;;;;;;;;;;;16.02;100.00;95015.91;5118104;27;19933;-72
2024/04/09 07:09:22;;;;;;;;;;;;;;;16.08;100.00;95026.25;5118660;27;19933;-73
2024/04/09 07:11:50;;;;;;;;;;;;;;;16.10;100.00;95034.84;5120183;27;20406;-73
2024/04/09 07:14:17;;;;;;;;;;;;;;;16.14;100.00;95016.84;5088031;27;20291;-73
2024/04/09 07:16:44;;;;;;;;;;;;;;;16.22;100.00;95021.38;5117130;27;19933;-73
2024/04/09 07:19:12;;;;;;;;;;;;;;;16.27;100.00;95017.72;5119206;27;19933;-73
2024/04/09 07:21:39;;;;;;;;;;;;;;;16.28;100.00;95030.16;5118178;27;19940;-73
2024/04/09 07:24:08;;;;;;;;;;;;;;;16.32;100.00;95052.78;5115852;27;19935;-73
2024/04/09 07:26:36;;;;;;;;;;;;;;;16.42;100.00;95048.91;5116226;27;20356;-73
2024/04/09 07:29:03;;;;;;;;;;;;;;;16.44;100.00;95063.72;5118790;27;19939;-73
2024/04/09 07:31:31;;;;;;;;;;;;;;;16.55;100.00;95059.50;5118690;27;19933;-73
2024/04/09 07:33:58;;;;;;;;;;;;;;;16.63;100.00;95068.75;5123655;27;19933;-73
2024/04/09 07:36:25;;;;;;;;;;;;;;;16.63;100.00;95068.75;5120003;27;19937;-73
2024/04/09 07:38:53;;;;;;;;;;;;;;;16.73;100.00;95090.06;5117920;27;20384;-75
2024/04/09 07:41:23;;;;;;;;;;;;;;;16.75;100.00;95090.53;5090394;27;19937;-73
2024/04/09 07:43:51;;;;;;;;;;;;;;;16.75;100.00;95095.97;5120346;27;19934;-73
2024/04/09 07:46:19;;;;;;;;;;;;;;;16.82;100.00;95098.16;5117858;27;20262;-73
2024/04/09 07:48:46;;;;;;;;;;;;;;;16.88;100.00;95104.97;5118036;27;19933;-73
2024/04/09 07:51:14;;;;;;;;;;;;;;;16.84;100.00;95102.13;5121279;27;20379;-73
2024/04/09 07:53:41;;;;;;;;;;;;;;;16.91;100.00;95096.97;5118610;27;20272;-73
2024/04/09 07:56:09;;;;;;;;;;;;;;;16.94;100.00;95111.81;5113971;27;20283;-73
2024/04/09 07:58:36;;;;;;;;;;;;;;;16.98;100.00;95107.31;5114074;27;20327;-73
2024/04/09 08:01:04;;;;;;;;;;;;;;;17.04;100.00;95114.91;5117632;27;19948;-73
2024/04/09 08:03:32;;;;;;;;;;;;;;;17.07;100.00;95121.63;5116703;27;19934;-73
2024/04/09 08:06:00;;;;;;;;;;;;;;;17.11;100.00;95123.34;5114782;27;19933;-73
2024/04/09 08:08:28;;;;;;;;;;;;;;;17.09;100.00;95120.13;5117863;27;19933;-74
2024/04/09 08:11:00;;;;;;;;;;;;;;;17.07;100.00;95113.47;5118008;27;19933;-73
2024/04/09 08:13:27;;;;;;;;;;;;;;;17.12;100.00;95124.94;5119353;27;19991;-73
2024/04/09 08:15:56;;;;;;;;;;;;;;;17.18;100.00;95127.44;5083184;27;19940;-72
2024/04/09 08:18:27;;;;;;;;;;;;;;;17.18;100.00;95128.22;5116498;27;19933;-72
2024/04/09 08:20:55;;;;;;;;;;;;;;;17.09;100.00;95141.88;5117179;27;19934;-72
2024/04/09 08:23:22;;;;;;;;;;;;;;;17.08;100.00;95124.00;5118229;27;20304;-73
2024/04/09 08:25:50;;;;;;;;;;;;;;;17.09;100.00;95125.56;5116401;27;19940;-71
2024/04/09 08:28:18;;;;;;;;;;;;;;;17.12;100.00;95129.56;5115595;27;20090;-72
2024/04/09 08:30:45;;;;;;;;;;;;;;;17.15;100.00;95133.53;5117190;27;20322;-72
2024/04/09 08:33:13;;;;;;;;;;;;;;;17.19;100.00;95140.69;5120905;27;19937;-73
2024/04/09 08:35:47;;;;;;;;;;;;;;;17.21;100.00;95132.22;5116134;27;19933;-72
2024/04/09 08:38:17;;;;;;;;;;;;;;;17.24;100.00;95134.28;5115557;27;20387;-72
2024/04/09 08:40:44;;;;;;;;;;;;;;;17.31;100.00;95132.63;5119239;27;20378;-73
2024/04/09 08:43:15;;;;;;;;;;;;;;;17.36;100.00;95139.78;5117694;27;20345;-72
2024/04/09 08:45:43;;;;;;;;;;;;;;;17.34;100.00;95139.31;5116325;27;19944;-72
2024/04/09 08:48:14;;;;;;;;;;;;;;;17.39;100.00;95142.59;5118741;27;20163;-73
2024/04/09 08:50:49;;;;;;;;;;;;;;;17.40;100.00;95151.53;5115715;27;20248;-72
2024/04/09 08:53:21;;;;;;;;;;;;;;;17.39;100.00;95155.38;5113953;27;19940;-72
2024/04/09 08:55:48;;;;;;;;;;;;;;;17.42;100.00;95160.16;5114394;27;19972;-72
2024/04/09 08:58:16;;;;;;;;;;;;;;;17.47;100.00;95151.81;5113275;27;19945;-71
2024/04/09 09:00:43;;;;;;;;;;;;;;;17.55;100.00;95166.44;5116673;27;20361;-71
2024/04/09 09:03:10;;;;;;;;;;;;;;;17.58;100.00;95163.88;5122621;27;19933;-71
2024/04/09 09:05:38;;;;;;;;;;;;;;;17.64;100.00;95157.13;5113315;27;20605;-71
2024/04/09 09:08:05;;;;;;;;;;;;;;;17.64;100.00;95173.44;5116102;27;20021;-73
2024/04/09 09:10:35;;;;;;;;;;;;;;;17.80;100.00;95182.59;5116911;27;19933;-72
2024/04/09 09:13:03;;;;;;;;;;;;;;;17.79;100.00;95161.16;5115550;27;19940;-72
2024/04/09 09:15:31;;;;;;;;;;;;;;;17.79;100.00;95178.28;5115529;27;19934;-73
2024/04/09 09:17:59;;;;;;;;;;;;;;;17.85;100.00;95173.41;5116389;27;19940;-72
2024/04/09 09:20:27;;;;;;;;;;;;;;;17.82;100.00;95174.91;5115873;27;19940;-72
2024/04/09 09:22:54;;;;;;;;;;;;;;;17.84;100.00;95180.78;5117354;27;19933;-73
2024/04/09 09:25:26;;;;;;;;;;;;;;;17.89;100.00;95175.16;5115796;27;20012;-73
2024/04/09 09:28:07;;;;;;;;;;;;;;;17.75;100.00;95177.34;5116256;27;19933;-72
2024/04/09 09:30:37;;;;;;;;;;;;;;;17.68;100.00;95185.22;5116218;27;19937;-72
2024/04/09 09:33:11;;;;;;;;;;;;;;;17.65;100.00;95196.00;5115394;27;19934;-73
2024/04/09 09:35:41;;;;;;;;;;;;;;;17.59;100.00;95189.13;5113957;27;20485;-73
2024/04/09 09:38:08;;;;;;;;;;;;;;;17.58;100.00;95206.56;5116513;27;19933;-73
2024/04/09 09:40:35;;;;;;;;;;;;;;;17.50;100.00;95225.31;5116496;27;19934;-74
2024/04/09 09:43:03;;;;;;;;;;;;;;;17.51;100.00;95223.41;5115094;27;20464;-73
2024/04/09 09:45:32;;;;;;;;;;;;;;;17.58;100.00;95229.09;5112675;27;19934;-73
2024/04/09 09:47:59;;;;;;;;;;;;;;;17.47;100.00;95222.47;5112718;27;19933;-73
2024/04/09 09:50:27;;;;;;;;;;;;;;;17.51;100.00;95231.56;5118249;27;20049;-72
2024/04/09 09:52:55;;;;;;;;;;;;;;;17.50;100.00;95227.25;5121061;27;19933;-73
2024/04/09 09:55:23;;;;;;;;;;;;;;;17.51;100.00;95226.13;5116224;27;19940;-73
2024/04/09 09:57:52;;;;;;;;;;;;;;;17.57;100.00;95232.94;5086960;27;19940;-73
2024/04/09 10:00:21;;;;;;;;;;;;;;;17.52;100.00;95225.81;5116800;27;19933;-73
2024/04/09 10:02:49;;;;;;;;;;;;;;;17.54;100.00;95228.16;5121643;27;19941;-73
2024/04/09 10:05:18;;;;;;;;;;;;;;;17.55;100.00;95231.69;5086579;27;19933;-73
2024/04/09 10:07:49;;;;;;;;;;;;;;;17.52;100.00;95231.22;5121577;27;20379;-72
2024/04/09 10:10:26;;;;;;;;;;;;;;;17.51;100.00;95251.38;5118120;27;19939;-73
2024/04/09 10:12:54;;;;;;;;;;;;;;;17.55;100.00;95262.38;5119402;27;19933;-73
2024/04/09 10:15:26;;;;;;;;;;;;;;;17.46;100.00;95261.63;5116067;27;20494;-72
2024/04/09 10:19:41;;;;;;;;;;;;;;;17.39;100.00;95269.50;5466851;25;19932;-71
2024/04/09 10:22:08;;;;;;;;;;;;;;;17.33;100.00;95276.25;5468896;26;19928;-71
2024/04/09 10:24:37;;;;;;;;;;;;;;;17.24;100.00;95280.97;5468820;26;20415;-70
2024/04/09 10:27:05;;;;;;;;;;;;;;;17.28;100.00;95281.88;5470172;26;20467;-70
2024/04/09 10:29:32;;;;;;;;;;;;;;;17.12;100.00;95277.00;5469628;26;19928;-71
2024/04/09 10:31:59;;;;;;;;;;;;;;;17.19;100.00;95275.69;5471252;26;19928;-70
2024/04/09 10:34:27;;;;;;;;;;;;;;;17.10;100.00;95276.53;5472108;26;19928;-70
2024/04/09 10:36:59;;;;;;;;;;;;;;;17.23;100.00;95282.09;5474104;26;19928;-70
2024/04/09 10:39:27;;;;;;;;;;;;;;;17.30;100.00;95280.44;5473212;26;20584;-70
2024/04/09 10:41:57;;;;;;;;;;;;;;;17.27;100.00;95291.94;5472392;26;19927;-72
2024/04/09 10:44:24;;;;;;;;;;;;;;;17.48;100.00;95292.78;5468111;26;19928;-70
2024/04/09 10:46:52;;;;;;;;;;;;;;;17.44;100.00;95288.34;5471036;26;19929;-70
2024/04/09 10:49:19;;;;;;;;;;;;;;;17.28;100.00;95295.47;5469818;26;19929;-72
2024/04/09 10:51:47;;;;;;;;;;;;;;;17.48;100.00;95300.13;5467701;26;19934;-71
2024/04/09 10:54:15;;;;;;;;;;;;;;;17.47;100.00;95298.53;5464966;26;19938;-71
2024/04/09 10:56:42;;;;;;;;;;;;;;;17.54;100.00;95304.25;5436249;26;19928;-71
2024/04/09 10:59:21;;;;;;;;;;;;;;;17.83;100.00;95317.84;5470629;26;19928;-72
2024/04/09 11:01:49;;;;;;;;;;;;;;;17.89;100.00;95316.53;5470475;26;19927;-71
2024/04/09 11:04:18;;;;;;;;;;;;;;;17.67;100.00;95321.50;5473078;26;20277;-71
2024/04/09 11:06:46;;;;;;;;;;;;;;;17.44;100.00;95331.81;5468277;26;19934;-70
2024/04/09 11:09:16;;;;;;;;;;;;;;;17.43;100.00;95331.03;5470871;26;19934;-70
2024/04/09 11:11:44;;;;;;;;;;;;;;;17.36;100.00;95332.66;5463415;26;19947;-70
2024/04/09 11:14:12;;;;;;;;;;;;;;;17.30;100.00;95333.97;5464669;26;19936;-70
2024/04/09 11:16:46;;;;;;;;;;;;;;;17.02;100.00;95336.34;5468606;26;20923;-69
2024/04/09 11:19:21;;;;;;;;;;;;;;;17.18;100.00;95329.22;5467109;26;19928;-71
2024/04/09 11:21:49;;;;;;;;;;;;;;;16.99;100.00;95331.53;5438364;26;19935;-70
2024/04/09 11:24:16;;;;;;;;;;;;;;;16.87;100.00;95342.28;5470602;26;20316;-70
2024/04/09 11:26:45;;;;;;;;;;;;;;;16.72;100.00;95344.41;5469618;26;19935;-70
2024/04/09 11:29:18;;;;;;;;;;;;;;;16.65;100.00;95344.09;5460497;26;19928;-68
2024/04/09 11:31:45;;;;;;;;;;;;;;;16.81;100.00;95335.41;5484085;26;19929;-71
2024/04/09 11:34:22;;;;;;;;;;;;;;;16.85;100.00;95329.03;5450434;26;19929;-71
2024/04/09 11:36:49;;;;;;;;;;;;;;;16.99;100.00;95332.34;5453465;26;20225;-70
2024/04/09 11:39:19;;;;;;;;;;;;;;;17.04;100.00;95337.59;5453029;26;19928;-71
2024/04/09 11:41:47;;;;;;;;;;;;;;;16.95;100.00;95336.03;5449302;26;20380;-70
2024/04/09 11:44:23;;;;;;;;;;;;;;;16.63;100.00;95329.25;5451501;26;19929;-71
2024/04/09 11:46:51;;;;;;;;;;;;;;;16.74;100.00;95303.34;5450906;26;20568;-69
2024/04/09 11:49:18;;;;;;;;;;;;;;;16.66;100.00;95291.41;5418480;26;19927;-70
2024/04/09 11:51:46;;;;;;;;;;;;;;;16.63;100.00;95296.69;5458644;26;19929;-71
2024/04/09 11:54:13;;;;;;;;;;;;;;;16.66;100.00;95294.09;5456733;26;19928;-71
2024/04/09 11:56:40;;;;;;;;;;;;;;;16.55;100.00;95300.19;5456871;26;19928;-70
2024/04/09 11:59:08;;;;;;;;;;;;;;;16.22;100.00;95298.00;5453600;26;20259;-70
2024/04/09 12:01:35;;;;;;;;;;;;;;;15.92;100.00;95266.47;5450319;26;19935;-70
2024/04/09 12:04:02;;;;;;;;;;;;;;;15.33;100.00;95257.16;5455432;26;19991;-72
2024/04/09 12:06:30;;;;;;;;;;;;;;;15.07;100.00;95240.84;5451399;26;19928;-72
2024/04/09 12:08:58;;;;;;;;;;;;;;;14.73;100.00;95230.72;5446138;26;19928;-69
2024/04/09 12:11:25;;;;;;;;;;;;;;;14.45;100.00;95221.22;5447930;26;19928;-71
2024/04/09 12:13:53;;;;;;;;;;;;;;;14.33;100.00;95200.13;5449503;26;20379;-71
2024/04/09 12:16:20;;;;;;;;;;;;;;;14.18;100.00;95214.84;5456268;26;19934;-68
2024/04/09 12:18:48;;;;;;;;;;;;;;;14.40;100.00;95176.19;5449625;26;19929;-69
2024/04/09 12:21:16;;;;;;;;;;;;;;;14.24;100.00;95181.19;5452744;26;20412;-72
2024/04/09 12:23:43;;;;;;;;;;;;;;;14.07;100.00;95191.91;5449374;26;19958;-72
2024/04/09 12:26:10;;;;;;;;;;;;;;;13.76;100.00;95186.47;5455747;26;19933;-68
2024/04/09 12:28:38;;;;;;;;;;;;;;;13.63;100.00;95198.94;5454868;26;20282;-71
2024/04/09 12:31:05;;;;;;;;;;;;;;;13.45;100.00;95194.50;5443912;26;20468;-70
2024/04/09 12:33:32;;;;;;;;;;;;;;;13.55;100.00;95202.38;5450626;26;20274;-72
2024/04/09 12:36:00;;;;;;;;;;;;;;;13.92;100.00;95201.19;5455566;26;20059;-72
2024/04/09 12:38:27;;;;;;;;;;;;;;;13.82;100.00;95206.84;5449376;26;20377;-69
2024/04/09 12:40:54;;;;;;;;;;;;;;;13.71;100.00;95210.09;5442962;26;19928;-71
2024/04/09 12:43:22;;;;;;;;;;;;;;;13.50;100.00;95216.00;5452544;26;19938;-70